sensor_id;sensor_type;location;lat;lon;timestamp;pressure;altitude;pressure_sealevel;temperature;humidity
85224;BME280;75619;51.316;4.824;2024-01-30T00:02:23;102404.56;;;6.54;100.00
85224;BME280;75619;51.316;4.824;2024-01-30T00:04:49;102399.81;;;6.66;100.00
85224;BME280;75619;51.316;4.824;2024-01-30T00:07:14;102402.16;;;6.73;100.00
85224;BME280;75619;51.316;4.824;2024-01-30T00:09:40;102412.63;;;6.75;100.00
85224;BME280;75619;51.316;4.824;2024-01-30T00:12:06;102405.38;;;6.83;100.00
85224;BME280;75619;51.316;4.824;2024-01-30T00:14:31;102402.63;;;6.86;100.00
85224;BME280;75619;51.316;4.824;2024-01-30T00:16:57;102396.56;;;6.84;100.00
85224;BME280;75619;51.316;4.824;2024-01-30T00:19:23;102400.19;;;6.80;100.00
85224;BME280;75619;51.316;4.824;2024-01-30T00:21:48;102396.56;;;6.84;100.00
85224;BME280;75619;51.316;4.824;2024-01-30T00:24:14;102393.88;;;6.85;100.00
85224;BME280;75619;51.316;4.824;2024-01-30T00:26:39;102388.59;;;6.85;100.00
85224;BME280;75619;51.316;4.824;2024-01-30T00:29:04;102391.22;;;6.85;100.00
85224;BME280;75619;51.316;4.824;2024-01-30T00:31:30;102387.66;;;6.88;100.00
85224;BME280;75619;51.316;4.824;2024-01-30T00:33:55;102381.50;;;6.89;100.00
85224;BME280;75619;51.316;4.824;2024-01-30T00:36:21;102382.38;;;6.88;100.00
85224;BME280;75619;51.316;4.824;2024-01-30T00:38:47;102385.16;;;6.85;100.00
85224;BME280;75619;51.316;4.824;2024-01-30T00:41:12;102380.69;;;6.87;100.00
85224;BME280;75619;51.316;4.824;2024-01-30T00:43:38;102378.91;;;6.87;100.00
85224;BME280;75619;51.316;4.824;2024-01-30T00:46:04;102377.06;;;6.89;100.00
85224;BME280;75619;51.316;4.824;2024-01-30T00:48:29;102377.88;;;6.91;100.00
85224;BME280;75619;51.316;4.824;2024-01-30T00:50:55;102370.22;;;6.85;100.00
85224;BME280;75619;51.316;4.824;2024-01-30T00:53:20;102365.72;;;6.89;100.00
85224;BME280;75619;51.316;4.824;2024-01-30T00:55:46;102362.09;;;6.91;100.00
85224;BME280;75619;51.316;4.824;2024-01-30T00:58:11;102362.97;;;6.92;100.00
85224;BME280;75619;51.316;4.824;2024-01-30T01:00:37;102366.41;;;6.94;100.00
85224;BME280;75619;51.316;4.824;2024-01-30T01:03:02;102362.91;;;6.93;100.00
85224;BME280;75619;51.316;4.824;2024-01-30T01:05:28;102367.31;;;6.93;100.00
85224;BME280;75619;51.316;4.824;2024-01-30T01:07:53;102359.22;;;6.99;100.00
85224;BME280;75619;51.316;4.824;2024-01-30T01:10:19;102363.69;;;6.97;100.00
85224;BME280;75619;51.316;4.824;2024-01-30T01:12:45;102363.78;;;6.94;100.00
85224;BME280;75619;51.316;4.824;2024-01-30T01:15:11;102370.75;;;6.95;100.00
85224;BME280;75619;51.316;4.824;2024-01-30T01:17:38;102362.09;;;6.91;100.00
85224;BME280;75619;51.316;4.824;2024-01-30T01:20:04;102368.28;;;6.90;100.00
85224;BME280;75619;51.316;4.824;2024-01-30T01:22:31;102364.84;;;6.88;100.00
85224;BME280;75619;51.316;4.824;2024-01-30T01:24:56;102358.78;;;6.86;100.00
85224;BME280;75619;51.316;4.824;2024-01-30T01:27:22;102357.22;;;6.81;100.00
85224;BME280;75619;51.316;4.824;2024-01-30T01:29:47;102347.78;;;6.75;100.00
85224;BME280;75619;51.316;4.824;2024-01-30T01:32:13;102345.22;;;6.74;100.00
85224;BME280;75619;51.316;4.824;2024-01-30T01:34:38;102341.66;;;6.75;100.00
85224;BME280;75619;51.316;4.824;2024-01-30T01:37:03;102339.09;;;6.73;100.00
85224;BME280;75619;51.316;4.824;2024-01-30T01:39:29;102339.44;;;6.64;100.00
85224;BME280;75619;51.316;4.824;2024-01-30T01:41:54;102341.28;;;6.61;100.00
85224;BME280;75619;51.316;4.824;2024-01-30T01:44:20;102345.66;;;6.62;100.00
85224;BME280;75619;51.316;4.824;2024-01-30T01:46:45;102349.22;;;6.59;100.00
85224;BME280;75619;51.316;4.824;2024-01-30T01:49:11;102358.06;;;6.57;100.00
85224;BME280;75619;51.316;4.824;2024-01-30T01:51:38;102356.03;;;6.65;100.00
85224;BME280;75619;51.316;4.824;2024-01-30T01:54:04;102359.31;;;6.71;100.00
85224;BME280;75619;51.316;4.824;2024-01-30T01:56:33;102354.88;;;6.73;100.00
85224;BME280;75619;51.316;4.824;2024-01-30T01:59:06;102353.25;;;6.69;100.00
85224;BME280;75619;51.316;4.824;2024-01-30T02:01:38;102350.78;;;6.65;100.00
85224;BME280;75619;51.316;4.824;2024-01-30T02:04:04;102352.59;;;6.63;100.00
85224;BME280;75619;51.316;4.824;2024-01-30T02:06:31;102349.09;;;6.64;100.00
85224;BME280;75619;51.316;4.824;2024-01-30T02:08:57;102349.03;;;6.65;100.00
85224;BME280;75619;51.316;4.824;2024-01-30T02:11:23;102342.31;;;6.57;100.00
85224;BME280;75619;51.316;4.824;2024-01-30T02:13:49;102346.97;;;6.48;100.00
85224;BME280;75619;51.316;4.824;2024-01-30T02:16:15;102334.91;;;6.43;100.00
85224;BME280;75619;51.316;4.824;2024-01-30T02:18:42;102336.59;;;6.44;100.00
85224;BME280;75619;51.316;4.824;2024-01-30T02:21:10;102338.44;;;6.42;100.00
85224;BME280;75619;51.316;4.824;2024-01-30T02:23:36;102342.06;;;6.38;100.00
85224;BME280;75619;51.316;4.824;2024-01-30T02:26:03;102333.50;;;6.33;100.00
85224;BME280;75619;51.316;4.824;2024-01-30T02:28:28;102334.41;;;6.32;100.00
85224;BME280;75619;51.316;4.824;2024-01-30T02:30:54;102337.16;;;6.27;100.00
85224;BME280;75619;51.316;4.824;2024-01-30T02:33:19;102327.75;;;6.22;100.00
85224;BME280;75619;51.316;4.824;2024-01-30T02:35:47;102332.03;;;6.24;100.00
85224;BME280;75619;51.316;4.824;2024-01-30T02:38:12;102322.50;;;6.22;100.00
85224;BME280;75619;51.316;4.824;2024-01-30T02:40:38;102330.25;;;6.25;100.00
85224;BME280;75619;51.316;4.824;2024-01-30T02:43:03;102323.28;;;6.24;100.00
85224;BME280;75619;51.316;4.824;2024-01-30T02:45:29;102321.34;;;6.30;100.00
85224;BME280;75619;51.316;4.824;2024-01-30T02:47:54;102316.13;;;6.29;100.00
85224;BME280;75619;51.316;4.824;2024-01-30T02:50:20;102323.84;;;6.33;100.00
85224;BME280;75619;51.316;4.824;2024-01-30T02:52:46;102323.03;;;6.31;100.00
85224;BME280;75619;51.316;4.824;2024-01-30T02:55:11;102327.47;;;6.29;100.00
85224;BME280;75619;51.316;4.824;2024-01-30T02:57:38;102323.91;;;6.32;100.00
85224;BME280;75619;51.316;4.824;2024-01-30T03:00:04;102323.75;;;6.36;100.00
85224;BME280;75619;51.316;4.824;2024-01-30T03:02:32;102326.88;;;6.47;100.00
85224;BME280;75619;51.316;4.824;2024-01-30T03:04:57;102327.50;;;6.54;100.00
85224;BME280;75619;51.316;4.824;2024-01-30T03:07:23;102324.63;;;6.62;100.00
85224;BME280;75619;51.316;4.824;2024-01-30T03:09:48;102323.63;;;6.66;100.00
85224;BME280;75619;51.316;4.824;2024-01-30T03:12:14;102332.97;;;6.73;100.00
85224;BME280;75619;51.316;4.824;2024-01-30T03:14:39;102326.88;;;6.72;100.00
85224;BME280;75619;51.316;4.824;2024-01-30T03:17:04;102326.03;;;6.72;100.00
85224;BME280;75619;51.316;4.824;2024-01-30T03:19:30;102327.72;;;6.73;100.00
85224;BME280;75619;51.316;4.824;2024-01-30T03:21:55;102326.69;;;6.77;100.00
85224;BME280;75619;51.316;4.824;2024-01-30T03:24:21;102334.59;;;6.77;100.00
85224;BME280;75619;51.316;4.824;2024-01-30T03:26:46;102329.97;;;6.83;100.00
85224;BME280;75619;51.316;4.824;2024-01-30T03:29:12;102335.13;;;6.86;100.00
85224;BME280;75619;51.316;4.824;2024-01-30T03:31:38;102335.44;;;7.02;100.00
85224;BME280;75619;51.316;4.824;2024-01-30T03:34:04;102330.94;;;7.05;100.00
85224;BME280;75619;51.316;4.824;2024-01-30T03:36:29;102335.13;;;7.11;100.00
85224;BME280;75619;51.316;4.824;2024-01-30T03:38:58;102328.91;;;7.12;100.00
85224;BME280;75619;51.316;4.824;2024-01-30T03:41:23;102330.75;;;7.10;100.00
85224;BME280;75619;51.316;4.824;2024-01-30T03:43:49;102329.13;;;7.07;100.00
85224;BME280;75619;51.316;4.824;2024-01-30T03:46:14;102319.56;;;7.05;100.00
85224;BME280;75619;51.316;4.824;2024-01-30T03:48:40;102322.19;;;7.05;100.00
85224;BME280;75619;51.316;4.824;2024-01-30T03:51:05;102311.50;;;7.09;100.00
85224;BME280;75619;51.316;4.824;2024-01-30T03:53:31;102305.22;;;7.13;100.00
85224;BME280;75619;51.316;4.824;2024-01-30T03:55:57;102304.22;;;7.16;100.00
85224;BME280;75619;51.316;4.824;2024-01-30T03:58:22;102306.97;;;7.13;100.00
85224;BME280;75619;51.316;4.824;2024-01-30T04:00:47;102299.91;;;7.15;100.00
85224;BME280;75619;51.316;4.824;2024-01-30T04:03:14;102297.84;;;7.23;100.00
85224;BME280;75619;51.316;4.824;2024-01-30T04:05:40;102299.84;;;7.16;100.00
85224;BME280;75619;51.316;4.824;2024-01-30T04:08:07;102294.63;;;7.15;100.00
85224;BME280;75619;51.316;4.824;2024-01-30T04:10:32;102287.47;;;7.18;100.00
85224;BME280;75619;51.316;4.824;2024-01-30T04:12:58;102290.34;;;7.12;100.00
85224;BME280;75619;51.316;4.824;2024-01-30T04:15:23;102292.31;;;7.07;100.00
85224;BME280;75619;51.316;4.824;2024-01-30T04:17:48;102290.56;;;7.06;100.00
85224;BME280;75619;51.316;4.824;2024-01-30T04:20:15;102293.38;;;7.02;100.00
85224;BME280;75619;51.316;4.824;2024-01-30T04:22:45;102294.38;;;6.99;100.00
85224;BME280;75619;51.316;4.824;2024-01-30T04:25:11;102295.31;;;6.97;100.00
85224;BME280;75619;51.316;4.824;2024-01-30T04:27:37;102284.81;;;6.97;100.00
85224;BME280;75619;51.316;4.824;2024-01-30T04:30:03;102285.88;;;6.91;100.00
85224;BME280;75619;51.316;4.824;2024-01-30T04:32:29;102295.66;;;6.88;100.00
85224;BME280;75619;51.316;4.824;2024-01-30T04:34:54;102289.59;;;6.86;100.00
85224;BME280;75619;51.316;4.824;2024-01-30T04:37:20;102285.19;;;6.86;100.00
85224;BME280;75619;51.316;4.824;2024-01-30T04:39:45;102284.09;;;6.92;100.00
85224;BME280;75619;51.316;4.824;2024-01-30T04:42:11;102291.13;;;6.91;100.00
85224;BME280;75619;51.316;4.824;2024-01-30T04:44:36;102284.69;;;7.00;100.00
85224;BME280;75619;51.316;4.824;2024-01-30T04:47:01;102288.81;;;7.07;100.00
85224;BME280;75619;51.316;4.824;2024-01-30T04:49:28;102293.09;;;7.09;100.00
85224;BME280;75619;51.316;4.824;2024-01-30T04:51:54;102298.28;;;7.11;100.00
85224;BME280;75619;51.316;4.824;2024-01-30T04:54:20;102279.72;;;7.15;100.00
85224;BME280;75619;51.316;4.824;2024-01-30T04:56:45;102283.81;;;7.22;100.00
85224;BME280;75619;51.316;4.824;2024-01-30T04:59:11;102283.03;;;7.20;100.00
85224;BME280;75619;51.316;4.824;2024-01-30T05:01:37;102290.66;;;7.28;100.00
85224;BME280;75619;51.316;4.824;2024-01-30T05:04:03;102283.41;;;7.33;100.00
85224;BME280;75619;51.316;4.824;2024-01-30T05:06:29;102276.28;;;7.37;100.00
85224;BME280;75619;51.316;4.824;2024-01-30T05:08:55;102290.16;;;7.40;100.00
85224;BME280;75619;51.316;4.824;2024-01-30T05:11:20;102284.78;;;7.43;100.00
85224;BME280;75619;51.316;4.824;2024-01-30T05:13:46;102289.00;;;7.47;100.00
85224;BME280;75619;51.316;4.824;2024-01-30T05:16:11;102283.31;;;7.58;100.00
85224;BME280;75619;51.316;4.824;2024-01-30T05:18:37;102281.44;;;7.61;100.00
85224;BME280;75619;51.316;4.824;2024-01-30T05:21:02;102269.88;;;7.65;100.00
85224;BME280;75619;51.316;4.824;2024-01-30T05:23:28;102276.97;;;7.63;100.00
85224;BME280;75619;51.316;4.824;2024-01-30T05:25:54;102267.25;;;7.65;100.00
85224;BME280;75619;51.316;4.824;2024-01-30T05:28:19;102269.91;;;7.64;100.00
85224;BME280;75619;51.316;4.824;2024-01-30T05:30:45;102266.44;;;7.63;100.00
85224;BME280;75619;51.316;4.824;2024-01-30T05:33:10;102272.50;;;7.65;100.00
85224;BME280;75619;51.316;4.824;2024-01-30T05:35:37;102269.09;;;7.63;100.00
85224;BME280;75619;51.316;4.824;2024-01-30T05:38:03;102269.03;;;7.65;100.00
85224;BME280;75619;51.316;4.824;2024-01-30T05:40:30;102275.94;;;7.67;100.00
85224;BME280;75619;51.316;4.824;2024-01-30T05:42:56;102278.56;;;7.67;100.00
85224;BME280;75619;51.316;4.824;2024-01-30T05:45:21;102269.47;;;7.76;100.00
85224;BME280;75619;51.316;4.824;2024-01-30T05:47:48;102271.34;;;7.72;100.00
85224;BME280;75619;51.316;4.824;2024-01-30T05:50:14;102272.66;;;7.82;100.00
85224;BME280;75619;51.316;4.824;2024-01-30T05:52:40;102269.22;;;7.82;100.00
85224;BME280;75619;51.316;4.824;2024-01-30T05:55:05;102266.56;;;7.82;100.00
85224;BME280;75619;51.316;4.824;2024-01-30T05:57:31;102271.84;;;7.82;100.00
85224;BME280;75619;51.316;4.824;2024-01-30T05:59:56;102274.31;;;7.85;100.00
85224;BME280;75619;51.316;4.824;2024-01-30T06:02:22;102278.69;;;7.86;100.00
85224;BME280;75619;51.316;4.824;2024-01-30T06:04:48;102279.53;;;7.86;100.00
85224;BME280;75619;51.316;4.824;2024-01-30T06:07:13;102281.13;;;7.90;100.00
85224;BME280;75619;51.316;4.824;2024-01-30T06:09:39;102283.56;;;7.95;100.00
85224;BME280;75619;51.316;4.824;2024-01-30T06:12:06;102272.13;;;7.96;100.00
85224;BME280;75619;51.316;4.824;2024-01-30T06:14:32;102286.00;;;7.99;100.00
85224;BME280;75619;51.316;4.824;2024-01-30T06:16:58;102292.16;;;8.00;100.00
85224;BME280;75619;51.316;4.824;2024-01-30T06:19:24;102297.53;;;7.97;100.00
85224;BME280;75619;51.316;4.824;2024-01-30T06:21:50;102298.13;;;8.03;100.00
85224;BME280;75619;51.316;4.824;2024-01-30T06:24:15;102296.03;;;8.11;100.00
85224;BME280;75619;51.316;4.824;2024-01-30T06:26:40;102293.28;;;8.14;100.00
85224;BME280;75619;51.316;4.824;2024-01-30T06:29:06;102297.38;;;8.22;100.00
85224;BME280;75619;51.316;4.824;2024-01-30T06:31:32;102308.69;;;8.25;100.00
85224;BME280;75619;51.316;4.824;2024-01-30T06:33:58;102316.41;;;8.30;100.00
85224;BME280;75619;51.316;4.824;2024-01-30T06:36:23;102319.44;;;8.41;100.00
85224;BME280;75619;51.316;4.824;2024-01-30T06:38:49;102318.31;;;8.46;100.00
85224;BME280;75619;51.316;4.824;2024-01-30T06:41:14;102327.25;;;8.42;100.00
85224;BME280;75619;51.316;4.824;2024-01-30T06:43:40;102324.84;;;8.38;100.00
85224;BME280;75619;51.316;4.824;2024-01-30T06:46:06;102328.72;;;8.49;100.00
85224;BME280;75619;51.316;4.824;2024-01-30T06:48:31;102332.84;;;8.56;100.00
85224;BME280;75619;51.316;4.824;2024-01-30T06:50:57;102332.94;;;8.53;100.00
85224;BME280;75619;51.316;4.824;2024-01-30T06:53:22;102332.69;;;8.59;100.00
85224;BME280;75619;51.316;4.824;2024-01-30T06:55:48;102341.31;;;8.63;100.00
85224;BME280;75619;51.316;4.824;2024-01-30T06:58:13;102341.25;;;8.64;100.00
85224;BME280;75619;51.316;4.824;2024-01-30T07:00:39;102337.50;;;8.70;100.00
85224;BME280;75619;51.316;4.824;2024-01-30T07:03:04;102347.25;;;8.68;100.00
85224;BME280;75619;51.316;4.824;2024-01-30T07:05:31;102349.28;;;8.61;100.00
85224;BME280;75619;51.316;4.824;2024-01-30T07:07:57;102348.31;;;8.64;100.00
85224;BME280;75619;51.316;4.824;2024-01-30T07:10:23;102350.69;;;8.70;100.00
85224;BME280;75619;51.316;4.824;2024-01-30T07:12:48;102353.72;;;8.81;100.00
85224;BME280;75619;51.316;4.824;2024-01-30T07:15:13;102356.88;;;8.89;100.00
85224;BME280;75619;51.316;4.824;2024-01-30T07:17:42;102362.53;;;9.00;100.00
85224;BME280;75619;51.316;4.824;2024-01-30T07:20:08;102365.81;;;9.05;100.00
85224;BME280;75619;51.316;4.824;2024-01-30T07:22:34;102365.97;;;9.02;100.00
85224;BME280;75619;51.316;4.824;2024-01-30T07:24:59;102365.72;;;9.08;100.00
85224;BME280;75619;51.316;4.824;2024-01-30T07:27:25;102363.84;;;9.10;100.00
85224;BME280;75619;51.316;4.824;2024-01-30T07:29:50;102373.66;;;9.07;100.00
85224;BME280;75619;51.316;4.824;2024-01-30T07:32:16;102377.06;;;9.10;100.00
85224;BME280;75619;51.316;4.824;2024-01-30T07:34:41;102381.25;;;9.14;100.00
85224;BME280;75619;51.316;4.824;2024-01-30T07:37:07;102384.69;;;9.16;100.00
85224;BME280;75619;51.316;4.824;2024-01-30T07:39:34;102379.94;;;9.24;100.00
85224;BME280;75619;51.316;4.824;2024-01-30T07:41:59;102388.72;;;9.25;100.00
85224;BME280;75619;51.316;4.824;2024-01-30T07:44:25;102384.25;;;9.25;100.00
85224;BME280;75619;51.316;4.824;2024-01-30T07:46:51;102393.75;;;9.29;100.00
85224;BME280;75619;51.316;4.824;2024-01-30T07:49:16;102394.25;;;9.37;100.00
85224;BME280;75619;51.316;4.824;2024-01-30T07:51:42;102389.53;;;9.45;100.00
85224;BME280;75619;51.316;4.824;2024-01-30T07:54:14;102394.81;;;9.45;100.00
85224;BME280;75619;51.316;4.824;2024-01-30T07:56:39;102398.72;;;9.55;100.00
85224;BME280;75619;51.316;4.824;2024-01-30T07:59:05;102393.88;;;9.65;100.00
85224;BME280;75619;51.316;4.824;2024-01-30T08:01:30;102389.66;;;9.61;100.00
85224;BME280;75619;51.316;4.824;2024-01-30T08:03:55;102396.50;;;9.65;100.00
85224;BME280;75619;51.316;4.824;2024-01-30T08:06:21;102396.50;;;9.65;100.00
85224;BME280;75619;51.316;4.824;2024-01-30T08:08:46;102394.03;;;9.81;100.00
85224;BME280;75619;51.316;4.824;2024-01-30T08:11:12;102380.97;;;9.77;100.00
85224;BME280;75619;51.316;4.824;2024-01-30T08:13:37;102384.75;;;9.91;100.00
85224;BME280;75619;51.316;4.824;2024-01-30T08:16:03;102385.53;;;9.93;100.00
85224;BME280;75619;51.316;4.824;2024-01-30T08:18:29;102383.69;;;9.95;100.00
85224;BME280;75619;51.316;4.824;2024-01-30T08:20:55;102384.47;;;9.97;100.00
85224;BME280;75619;51.316;4.824;2024-01-30T08:23:20;102376.75;;;10.11;100.00
85224;BME280;75619;51.316;4.824;2024-01-30T08:25:46;102382.81;;;10.13;100.00
85224;BME280;75619;51.316;4.824;2024-01-30T08:28:11;102392.31;;;10.17;100.00
85224;BME280;75619;51.316;4.824;2024-01-30T08:30:37;102394.88;;;10.18;100.00
85224;BME280;75619;51.316;4.824;2024-01-30T08:33:04;102399.63;;;10.29;100.00
85224;BME280;75619;51.316;4.824;2024-01-30T08:35:29;102387.38;;;10.28;100.00
85224;BME280;75619;51.316;4.824;2024-01-30T08:37:59;102394.91;;;10.35;100.00
85224;BME280;75619;51.316;4.824;2024-01-30T08:40:24;102382.47;;;10.37;100.00
85224;BME280;75619;51.316;4.824;2024-01-30T08:42:50;102392.91;;;10.40;100.00
85224;BME280;75619;51.316;4.824;2024-01-30T08:45:15;102389.19;;;10.44;100.00
85224;BME280;75619;51.316;4.824;2024-01-30T08:47:41;102385.59;;;10.45;100.00
85224;BME280;75619;51.316;4.824;2024-01-30T08:50:07;102388.97;;;10.49;100.00
85224;BME280;75619;51.316;4.824;2024-01-30T08:52:32;102382.88;;;10.47;100.00
85224;BME280;75619;51.316;4.824;2024-01-30T08:54:59;102386.78;;;10.57;100.00
85224;BME280;75619;51.316;4.824;2024-01-30T08:57:25;102383.97;;;10.60;100.00
85224;BME280;75619;51.316;4.824;2024-01-30T08:59:54;102391.03;;;10.59;100.00
85224;BME280;75619;51.316;4.824;2024-01-30T09:02:19;102396.97;;;10.65;100.00
85224;BME280;75619;51.316;4.824;2024-01-30T09:04:44;102408.47;;;10.64;100.00
85224;BME280;75619;51.316;4.824;2024-01-30T09:07:10;102405.59;;;10.68;100.00
85224;BME280;75619;51.316;4.824;2024-01-30T09:09:38;102408.56;;;10.62;100.00
85224;BME280;75619;51.316;4.824;2024-01-30T09:12:05;102415.34;;;10.68;100.00
85224;BME280;75619;51.316;4.824;2024-01-30T09:14:33;102408.03;;;10.73;100.00
85224;BME280;75619;51.316;4.824;2024-01-30T09:16:58;102415.09;;;10.72;100.00
85224;BME280;75619;51.316;4.824;2024-01-30T09:19:24;102420.41;;;10.89;100.00
85224;BME280;75619;51.316;4.824;2024-01-30T09:21:49;102417.38;;;10.80;100.00
85224;BME280;75619;51.316;4.824;2024-01-30T09:24:15;102423.50;;;10.80;100.00
85224;BME280;75619;51.316;4.824;2024-01-30T09:26:40;102415.56;;;10.80;100.00
85224;BME280;75619;51.316;4.824;2024-01-30T09:29:05;102425.91;;;10.85;100.00
85224;BME280;75619;51.316;4.824;2024-01-30T09:31:31;102428.56;;;10.85;100.00
85224;BME280;75619;51.316;4.824;2024-01-30T09:33:56;102430.50;;;10.81;100.00
85224;BME280;75619;51.316;4.824;2024-01-30T09:36:22;102433.84;;;10.85;100.00
85224;BME280;75619;51.316;4.824;2024-01-30T09:38:47;102436.28;;;10.89;100.00
85224;BME280;75619;51.316;4.824;2024-01-30T09:41:13;102435.41;;;10.89;100.00
85224;BME280;75619;51.316;4.824;2024-01-30T09:43:39;102436.44;;;10.86;100.00
85224;BME280;75619;51.316;4.824;2024-01-30T09:46:11;102448.72;;;10.87;100.00
85224;BME280;75619;51.316;4.824;2024-01-30T09:48:38;102449.59;;;10.88;100.00
85224;BME280;75619;51.316;4.824;2024-01-30T09:51:05;102459.63;;;10.98;100.00
85224;BME280;75619;51.316;4.824;2024-01-30T09:53:31;102452.47;;;11.00;100.00
85224;BME280;75619;51.316;4.824;2024-01-30T09:55:57;102451.38;;;11.04;100.00
85224;BME280;75619;51.316;4.824;2024-01-30T09:58:23;102448.69;;;11.21;100.00
85224;BME280;75619;51.316;4.824;2024-01-30T10:00:48;102451.66;;;11.15;100.00
85224;BME280;75619;51.316;4.824;2024-01-30T10:03:14;102450.50;;;11.21;100.00
85224;BME280;75619;51.316;4.824;2024-01-30T10:05:40;102466.94;;;11.10;100.00
85224;BME280;75619;51.316;4.824;2024-01-30T10:08:07;102459.56;;;11.17;100.00
85224;BME280;75619;51.316;4.824;2024-01-30T10:10:35;102468.88;;;11.24;100.00
85224;BME280;75619;51.316;4.824;2024-01-30T10:13:01;102461.25;;;11.18;100.00
85224;BME280;75619;51.316;4.824;2024-01-30T10:15:28;102468.41;;;11.16;100.00
85224;BME280;75619;51.316;4.824;2024-01-30T10:17:53;102473.47;;;11.03;100.00
85224;BME280;75619;51.316;4.824;2024-01-30T10:20:19;102472.78;;;11.00;100.00
85224;BME280;75619;51.316;4.824;2024-01-30T10:22:45;102473.56;;;11.02;100.00
85224;BME280;75619;51.316;4.824;2024-01-30T10:25:11;102482.13;;;11.07;100.00
85224;BME280;75619;51.316;4.824;2024-01-30T10:27:36;102486.34;;;11.11;100.00
85224;BME280;75619;51.316;4.824;2024-01-30T10:30:02;102486.38;;;11.09;100.00
85224;BME280;75619;51.316;4.824;2024-01-30T10:32:29;102491.94;;;11.05;100.00
85224;BME280;75619;51.316;4.824;2024-01-30T10:34:54;102494.09;;;10.97;100.00
85224;BME280;75619;51.316;4.824;2024-01-30T10:37:21;102488.97;;;10.94;100.00
85224;BME280;75619;51.316;4.824;2024-01-30T10:39:53;102496.59;;;11.00;100.00
85224;BME280;75619;51.316;4.824;2024-01-30T10:42:18;102486.22;;;10.95;100.00
85224;BME280;75619;51.316;4.824;2024-01-30T10:44:51;102488.25;;;11.07;100.00
85224;BME280;75619;51.316;4.824;2024-01-30T10:47:26;102488.19;;;11.09;100.00
85224;BME280;75619;51.316;4.824;2024-01-30T10:49:53;102494.63;;;11.03;100.00
85224;BME280;75619;51.316;4.824;2024-01-30T10:52:19;102493.78;;;11.03;100.00
85224;BME280;75619;51.316;4.824;2024-01-30T10:54:46;102491.94;;;11.05;100.00
85224;BME280;75619;51.316;4.824;2024-01-30T10:57:12;102499.94;;;11.03;100.00
85224;BME280;75619;51.316;4.824;2024-01-30T10:59:39;102494.97;;;11.14;100.00
85224;BME280;75619;51.316;4.824;2024-01-30T11:02:05;102490.00;;;11.25;100.00
85224;BME280;75619;51.316;4.824;2024-01-30T11:04:40;102505.63;;;11.30;100.00
85224;BME280;75619;51.316;4.824;2024-01-30T11:07:23;102485.75;;;11.21;100.00
85224;BME280;75619;51.316;4.824;2024-01-30T11:12:27;102491.69;;;11.09;100.00
85224;BME280;75619;51.316;4.824;2024-01-30T11:15:10;102494.88;;;11.16;100.00
85224;BME280;75619;51.316;4.824;2024-01-30T11:20:35;102484.00;;;11.05;100.00
85224;BME280;75619;51.316;4.824;2024-01-30T11:23:11;102492.06;;;11.02;100.00
85224;BME280;75619;51.316;4.824;2024-01-30T11:25:37;102479.72;;;11.02;100.00
85224;BME280;75619;51.316;4.824;2024-01-30T11:28:02;102496.91;;;11.11;100.00
85224;BME280;75619;51.316;4.824;2024-01-30T11:30:32;102495.81;;;10.98;100.00
85224;BME280;75619;51.316;4.824;2024-01-30T11:32:59;102494.84;;;10.99;100.00
85224;BME280;75619;51.316;4.824;2024-01-30T11:35:25;102487.19;;;10.94;100.00
85224;BME280;75619;51.316;4.824;2024-01-30T11:37:51;102499.13;;;10.84;100.00
85224;BME280;75619;51.316;4.824;2024-01-30T11:40:16;102507.06;;;10.84;100.00
85224;BME280;75619;51.316;4.824;2024-01-30T11:42:42;102512.66;;;10.78;100.00
85224;BME280;75619;51.316;4.824;2024-01-30T11:45:08;102513.53;;;10.79;100.00
85224;BME280;75619;51.316;4.824;2024-01-30T11:47:36;102515.38;;;10.77;100.00
85224;BME280;75619;51.316;4.824;2024-01-30T11:50:04;102514.09;;;10.85;100.00
85224;BME280;75619;51.316;4.824;2024-01-30T11:52:33;102502.06;;;10.78;100.00
85224;BME280;75619;51.316;4.824;2024-01-30T11:54:59;102518.59;;;10.83;100.00
85224;BME280;75619;51.316;4.824;2024-01-30T11:57:26;102493.00;;;11.01;100.00
85224;BME280;75619;51.316;4.824;2024-01-30T11:59:52;102511.44;;;11.19;100.00
85224;BME280;75619;51.316;4.824;2024-01-30T12:02:17;102517.75;;;11.34;100.00
85224;BME280;75619;51.316;4.824;2024-01-30T12:04:43;102520.91;;;11.42;100.00
85224;BME280;75619;51.316;4.824;2024-01-30T12:07:09;102528.13;;;11.56;100.00
85224;BME280;75619;51.316;4.824;2024-01-30T12:09:34;102524.19;;;11.80;100.00
85224;BME280;75619;51.316;4.824;2024-01-30T12:12:00;102518.44;;;12.04;100.00
85224;BME280;75619;51.316;4.824;2024-01-30T12:14:26;102534.78;;;11.97;100.00
85224;BME280;75619;51.316;4.824;2024-01-30T12:16:51;102528.06;;;11.90;100.00
85224;BME280;75619;51.316;4.824;2024-01-30T12:19:26;102524.16;;;11.81;100.00
85224;BME280;75619;51.316;4.824;2024-01-30T12:21:56;102526.56;;;11.52;100.00
85224;BME280;75619;51.316;4.824;2024-01-30T12:24:25;102514.56;;;11.62;100.00
85224;BME280;75619;51.316;4.824;2024-01-30T12:26:50;102529.91;;;11.72;100.00
85224;BME280;75619;51.316;4.824;2024-01-30T12:29:17;102529.75;;;11.75;100.00
85224;BME280;75619;51.316;4.824;2024-01-30T12:31:42;102527.34;;;11.71;100.00
85224;BME280;75619;51.316;4.824;2024-01-30T12:34:09;102534.09;;;11.59;100.00
85224;BME280;75619;51.316;4.824;2024-01-30T12:36:34;102545.47;;;11.61;100.00
85224;BME280;75619;51.316;4.824;2024-01-30T12:39:01;102537.94;;;11.54;100.00
85224;BME280;75619;51.316;4.824;2024-01-30T12:41:26;102544.56;;;11.45;100.00
85224;BME280;75619;51.316;4.824;2024-01-30T12:43:54;102546.09;;;11.32;100.00
85224;BME280;75619;51.316;4.824;2024-01-30T12:46:19;102543.41;;;11.33;100.00